createdAt,value
2023-04-25T00:04:31.311Z,97.50
2023-04-25T00:06:05.416Z,97.80
2023-04-25T00:07:47.243Z,97.80
2023-04-25T00:09:13.859Z,97.70
2023-04-25T00:09:47.547Z,98.00
2023-04-25T00:09:59.909Z,97.90
2023-04-25T00:10:14.738Z,97.80
2023-04-25T00:10:26.733Z,97.70
2023-04-25T00:10:38.501Z,97.90
2023-04-25T00:10:50.664Z,97.90
2023-04-25T00:11:02.523Z,97.80
2023-04-25T00:11:14.281Z,97.70
2023-04-25T00:11:26.236Z,97.70
2023-04-25T00:11:38.128Z,97.70
2023-04-25T00:11:49.869Z,97.70
2023-04-25T00:12:02.598Z,97.80
2023-04-25T00:12:14.439Z,97.90
2023-04-25T00:12:26.301Z,97.90
2023-04-25T00:12:38.824Z,97.90
2023-04-25T00:12:50.624Z,97.90
2023-04-25T00:13:03.596Z,97.90
2023-04-25T00:13:16.148Z,97.90
2023-04-25T00:13:27.930Z,97.90
2023-04-25T00:13:42.743Z,97.80
2023-04-25T00:13:55.535Z,97.90
2023-04-25T00:14:07.807Z,97.80
2023-04-25T00:14:19.848Z,97.70
2023-04-25T00:14:34.694Z,97.90
2023-04-25T00:14:48.408Z,97.80
2023-04-25T00:15:01.067Z,97.80
2023-04-25T00:15:13.221Z,97.90
2023-04-25T00:15:25.418Z,98.00
2023-04-25T00:15:38.831Z,98.10
2023-04-25T00:15:51.445Z,98.10
2023-04-25T00:16:03.571Z,98.20
2023-04-25T00:16:16.596Z,98.10
2023-04-25T00:16:30.142Z,98.20
2023-04-25T00:16:42.253Z,98.20
2023-04-25T00:16:55.386Z,98.20
2023-04-25T00:17:07.161Z,98.10
2023-04-25T00:17:20.333Z,98.20
2023-04-25T00:17:32.475Z,98.20
2023-04-25T00:17:44.310Z,98.30
2023-04-25T00:17:57.091Z,98.30
2023-04-25T00:18:08.935Z,98.20
2023-04-25T00:18:21.215Z,98.20
2023-04-25T00:18:34.313Z,98.30
2023-04-25T00:18:52.290Z,98.30
2023-04-25T00:19:04.381Z,98.40
2023-04-25T00:19:16.830Z,98.30
2023-04-25T00:19:29.448Z,98.40
2023-04-25T00:19:41.208Z,98.40
2023-04-25T00:19:53.613Z,98.40
2023-04-25T00:20:06.393Z,98.40
2023-04-25T00:20:18.488Z,98.40
2023-04-25T00:20:31.139Z,98.50
2023-04-25T00:20:47.387Z,98.60
2023-04-25T00:20:59.133Z,98.60
2023-04-25T00:21:11.051Z,98.70
2023-04-25T00:21:25.323Z,98.70
2023-04-25T00:21:38.704Z,98.60
2023-04-25T00:21:51.126Z,98.70
2023-04-25T00:22:05.524Z,98.70
2023-04-25T00:22:18.473Z,98.70
2023-04-25T00:22:30.245Z,98.80
2023-04-25T00:22:42.033Z,98.80
2023-04-25T00:22:56.940Z,98.80
2023-04-25T00:23:08.802Z,98.80
2023-04-25T00:23:20.594Z,98.90
2023-04-25T00:23:32.494Z,98.90
2023-04-25T00:23:44.475Z,98.90
2023-04-25T00:23:56.732Z,98.90
2023-04-25T00:24:08.677Z,98.90
2023-04-25T00:24:21.014Z,99.00
2023-04-25T00:24:32.853Z,99.10
2023-04-25T00:24:44.665Z,99.10
2023-04-25T00:24:58.276Z,99.10
2023-04-25T00:25:10.085Z,99.10
2023-04-25T00:25:21.932Z,99.10
2023-04-25T00:25:33.795Z,99.10
2023-04-25T00:25:46.204Z,99.20
2023-04-25T00:25:57.956Z,99.20
2023-04-25T00:26:09.813Z,99.30
2023-04-25T00:26:24.488Z,99.30
2023-04-25T00:26:36.933Z,99.20
2023-04-25T00:26:48.858Z,99.30
2023-04-25T00:27:00.687Z,99.30
2023-04-25T00:27:12.499Z,99.40
2023-04-25T00:27:24.369Z,99.40
2023-04-25T00:27:36.185Z,99.50
2023-04-25T00:27:47.945Z,99.50
2023-04-25T00:28:00.413Z,99.40
2023-04-25T00:28:13.118Z,99.50
2023-04-25T00:28:24.892Z,99.50
2023-04-25T00:28:36.776Z,99.40
2023-04-25T00:28:49.068Z,99.30
2023-04-25T00:29:00.912Z,99.30
2023-04-25T00:29:12.735Z,99.20
2023-04-25T00:29:24.482Z,99.20
2023-04-25T00:29:36.301Z,99.30
2023-04-25T00:29:48.080Z,99.20
2023-04-25T00:29:59.927Z,99.20
2023-04-25T00:30:12.416Z,99.10
2023-04-25T00:30:24.275Z,99.00
2023-04-25T00:30:36.059Z,98.90
2023-04-25T00:30:47.868Z,99.00
2023-04-25T00:30:59.695Z,99.00
2023-04-25T00:31:11.552Z,98.90
2023-04-25T00:31:23.461Z,98.90
2023-04-25T00:31:35.294Z,98.90
2023-04-25T00:31:47.210Z,99.00
2023-04-25T00:31:59.313Z,99.10
2023-04-25T00:32:11.215Z,99.20
2023-04-25T00:32:23.019Z,99.40
2023-04-25T00:32:34.942Z,99.40
2023-04-25T00:32:47.085Z,99.30
2023-04-25T00:32:59.105Z,99.10
2023-04-25T00:33:11.157Z,99.30
2023-04-25T00:33:23.093Z,99.40
2023-04-25T00:33:35.027Z,99.40
2023-04-25T00:33:46.959Z,99.50
2023-04-25T00:33:58.730Z,99.50
2023-04-25T00:34:10.586Z,99.50
2023-04-25T00:34:22.369Z,99.40
2023-04-25T00:34:34.178Z,99.50
2023-04-25T00:34:45.924Z,99.60
2023-04-25T00:34:59.068Z,99.50
2023-04-25T00:35:11.079Z,99.40
2023-04-25T00:35:23.178Z,99.30
2023-04-25T00:35:35.501Z,99.30
2023-04-25T00:35:47.384Z,99.30
2023-04-25T00:35:59.154Z,99.20
2023-04-25T00:36:11.212Z,99.30
2023-04-25T00:36:23.153Z,99.40
2023-04-25T00:36:34.962Z,99.40
2023-04-25T00:36:46.818Z,99.30
2023-04-25T00:36:59.176Z,99.20
2023-04-25T00:37:11.521Z,99.00
2023-04-25T00:37:23.304Z,98.90
2023-04-25T00:37:35.092Z,99.00
2023-04-25T00:37:46.923Z,99.20
2023-04-25T00:37:59.022Z,99.30
2023-04-25T00:38:10.784Z,99.20
2023-04-25T00:38:22.729Z,99.40
2023-04-25T00:38:34.531Z,99.40
2023-04-25T00:38:46.431Z,99.50
2023-04-25T00:38:58.276Z,99.60
2023-04-25T00:39:10.080Z,99.50
2023-04-25T00:39:21.809Z,99.50
2023-04-25T00:39:33.660Z,99.50
2023-04-25T00:39:45.598Z,99.50
2023-04-25T00:40:01.444Z,99.50
2023-04-25T00:40:13.412Z,99.70
2023-04-25T00:40:25.337Z,99.80
2023-04-25T00:40:37.136Z,99.70
2023-04-25T00:40:49.047Z,99.50
2023-04-25T00:41:00.856Z,99.50
2023-04-25T00:41:12.632Z,99.40
2023-04-25T00:41:26.206Z,99.50
2023-04-25T00:41:37.964Z,99.50
2023-04-25T00:41:49.887Z,99.50
2023-04-25T00:42:03.044Z,99.40
2023-04-25T00:42:14.847Z,99.30
2023-04-25T00:42:26.802Z,99.30
2023-04-25T00:42:38.867Z,99.50
2023-04-25T00:42:50.852Z,99.60
2023-04-25T00:43:02.632Z,99.60
2023-04-25T00:43:14.441Z,99.60
2023-04-25T00:43:27.287Z,99.50
2023-04-25T00:43:39.179Z,99.50
2023-04-25T00:43:51.190Z,99.60
2023-04-25T00:44:03.996Z,99.50
2023-04-25T00:44:17.974Z,99.40
2023-04-25T00:44:30.926Z,99.30
2023-04-25T00:44:42.765Z,99.30
2023-04-25T00:44:54.717Z,99.30
2023-04-25T00:45:08.038Z,99.40
2023-04-25T00:45:19.902Z,99.30
2023-04-25T00:45:31.699Z,99.30
2023-04-25T00:45:43.458Z,99.40
2023-04-25T00:45:55.380Z,99.30
2023-04-25T00:46:07.241Z,99.20
2023-04-25T00:46:19.116Z,99.30
2023-04-25T00:46:32.166Z,99.40
2023-04-25T00:46:44.059Z,99.40
2023-04-25T00:46:56.042Z,99.50
2023-04-25T00:47:07.983Z,99.60
2023-04-25T00:47:19.840Z,99.70
2023-04-25T00:47:31.679Z,99.70
2023-04-25T00:47:43.743Z,99.50
2023-04-25T00:47:55.644Z,99.50
2023-04-25T00:48:07.770Z,99.50
2023-04-25T00:48:22.839Z,99.40
2023-04-25T00:48:34.699Z,99.30
2023-04-25T00:48:46.566Z,99.30
2023-04-25T00:48:58.442Z,99.20
2023-04-25T00:49:15.078Z,99.20
2023-04-25T00:49:26.963Z,99.20
2023-04-25T00:49:38.694Z,99.20
2023-04-25T00:49:50.593Z,99.30
2023-04-25T00:50:02.426Z,99.40
2023-04-25T00:50:14.291Z,99.30
2023-04-25T00:50:26.382Z,99.30
2023-04-25T00:50:38.141Z,99.20
2023-04-25T00:50:54.013Z,99.20
2023-04-25T00:51:05.909Z,99.20
2023-04-25T00:51:20.326Z,99.20
2023-04-25T00:51:32.627Z,99.20
2023-04-25T00:51:48.132Z,99.20
2023-04-25T00:52:00.070Z,99.40
2023-04-25T00:52:11.940Z,99.30
2023-04-25T00:52:23.778Z,99.40
2023-04-25T00:52:35.653Z,99.40
2023-04-25T00:52:47.534Z,99.40
2023-04-25T00:52:59.318Z,99.30
2023-04-25T00:53:11.237Z,99.30
2023-04-25T00:53:23.479Z,99.40
2023-04-25T00:53:35.405Z,99.40
2023-04-25T00:53:47.229Z,99.50
2023-04-25T00:53:59.061Z,99.50
2023-04-25T00:54:12.239Z,99.50
2023-04-25T00:54:24.305Z,99.40
2023-04-25T00:54:36.147Z,99.40
2023-04-25T00:54:48.042Z,99.40
2023-04-25T00:55:00.756Z,99.40
2023-04-25T00:55:12.954Z,99.30
2023-04-25T00:55:24.858Z,99.40
2023-04-25T00:55:37.190Z,99.40
2023-04-25T00:55:49.332Z,99.30
2023-04-25T00:56:01.151Z,99.30
2023-04-25T00:56:12.965Z,99.50
2023-04-25T00:56:24.766Z,99.50
2023-04-25T00:56:36.552Z,99.50
2023-04-25T00:56:48.342Z,99.40
2023-04-25T00:57:01.872Z,99.40
2023-04-25T00:57:13.635Z,99.40
2023-04-25T00:57:25.797Z,99.40
2023-04-25T00:57:37.809Z,99.50
2023-04-25T00:57:50.130Z,99.50
2023-04-25T00:58:02.024Z,99.50
2023-04-25T00:58:13.872Z,99.50
2023-04-25T00:58:25.651Z,99.40
2023-04-25T00:58:37.418Z,99.50
2023-04-25T00:58:49.313Z,99.50
2023-04-25T00:59:01.148Z,99.40
2023-04-25T00:59:13.992Z,99.50
2023-04-25T00:59:25.866Z,99.40
2023-04-25T00:59:37.679Z,99.40
2023-04-25T00:59:49.425Z,99.40
2023-04-25T01:00:01.254Z,99.40
2023-04-25T01:00:15.065Z,99.40
2023-04-25T01:00:26.916Z,99.50
2023-04-25T01:00:38.729Z,99.40
2023-04-25T01:00:53.171Z,99.30
2023-04-25T01:01:05.290Z,99.40
2023-04-25T01:01:17.603Z,99.50
2023-04-25T01:01:29.589Z,99.50
2023-04-25T01:01:41.788Z,99.50
2023-04-25T01:01:53.815Z,99.50
2023-04-25T01:02:05.966Z,99.40
2023-04-25T01:02:18.020Z,99.40
2023-04-25T01:02:31.014Z,99.40
2023-04-25T01:02:46.056Z,99.50
2023-04-25T01:02:58.128Z,99.60
2023-04-25T01:03:11.242Z,99.50
2023-04-25T01:03:24.093Z,99.40
2023-04-25T01:03:37.047Z,99.50
2023-04-25T01:03:51.262Z,99.60
2023-04-25T01:04:03.446Z,99.50
2023-04-25T01:04:15.874Z,99.50
2023-04-25T01:04:28.781Z,99.50
2023-04-25T01:04:40.674Z,99.40
2023-04-25T01:04:52.515Z,99.50
2023-04-25T01:05:04.811Z,99.50
2023-04-25T01:05:16.700Z,99.40
2023-04-25T01:05:28.501Z,99.60
2023-04-25T01:05:42.082Z,99.60
2023-04-25T01:05:53.948Z,99.60
2023-04-25T01:06:05.875Z,99.70
2023-04-25T01:06:17.970Z,99.80
2023-04-25T01:06:29.779Z,99.80
2023-04-25T01:06:42.004Z,99.80
2023-04-25T01:06:54.418Z,99.90
2023-04-25T01:07:06.206Z,99.90
2023-04-25T01:07:18.040Z,99.90
2023-04-25T01:07:30.601Z,99.90
2023-04-25T01:07:42.463Z,99.90
2023-04-25T01:07:54.445Z,99.90
2023-04-25T01:08:06.265Z,99.90
2023-04-25T01:08:18.038Z,99.90
2023-04-25T01:08:29.878Z,99.90
2023-04-25T01:08:41.670Z,99.90
2023-04-25T01:08:53.412Z,99.90
2023-04-25T01:09:05.998Z,99.90
2023-04-25T01:09:17.791Z,99.90
2023-04-25T01:09:31.431Z,99.90
2023-04-25T01:09:43.262Z,99.90
2023-04-25T01:09:55.047Z,99.90
2023-04-25T01:10:07.416Z,99.90
2023-04-25T01:10:19.224Z,99.90
2023-04-25T01:10:31.005Z,99.90
2023-04-25T01:10:42.877Z,99.90
2023-04-25T01:10:54.693Z,99.90
2023-04-25T01:11:06.995Z,99.90
2023-04-25T01:11:18.808Z,99.90
2023-04-25T01:11:30.850Z,99.90
2023-04-25T01:11:42.725Z,99.90
2023-04-25T01:11:54.694Z,99.90
2023-04-25T01:12:06.694Z,99.90
2023-04-25T01:12:18.473Z,99.90
2023-04-25T01:12:30.296Z,99.90
2023-04-25T01:12:42.134Z,99.90
2023-04-25T01:12:54.002Z,99.90
2023-04-25T01:13:05.966Z,99.90
2023-04-25T01:13:17.786Z,99.90
2023-04-25T01:13:29.554Z,99.90
2023-04-25T01:13:41.447Z,99.90
2023-04-25T01:13:53.427Z,99.90
2023-04-25T01:14:05.382Z,99.90
2023-04-25T01:14:17.441Z,99.90
2023-04-25T01:14:30.253Z,99.90
2023-04-25T01:14:42.086Z,99.90
2023-04-25T01:14:53.843Z,99.90
2023-04-25T01:15:06.226Z,99.90
2023-04-25T01:15:18.009Z,99.90
2023-04-25T01:15:29.899Z,99.90
2023-04-25T01:15:41.671Z,99.90
2023-04-25T01:15:53.499Z,99.90
2023-04-25T01:16:05.681Z,99.90
2023-04-25T01:16:17.490Z,99.90
2023-04-25T01:16:29.305Z,99.90
2023-04-25T01:16:41.213Z,99.90
2023-04-25T01:16:54.137Z,99.90
2023-04-25T01:17:06.530Z,99.90
2023-04-25T01:17:20.747Z,99.90
2023-04-25T01:17:33.168Z,99.90
2023-04-25T01:17:45.377Z,99.90
2023-04-25T01:17:59.095Z,99.90
2023-04-25T01:18:11.112Z,99.90
2023-04-25T01:18:22.894Z,99.90
2023-04-25T01:18:34.680Z,99.90
2023-04-25T01:18:46.505Z,99.90
2023-04-25T01:18:58.348Z,99.90
2023-04-25T01:19:12.232Z,99.90
2023-04-25T01:19:24.065Z,99.90
2023-04-25T01:19:36.715Z,99.90
2023-04-25T01:19:50.018Z,99.90
2023-04-25T01:20:04.582Z,99.90
2023-04-25T01:20:16.968Z,99.90
2023-04-25T01:20:29.448Z,99.90
2023-04-25T01:20:41.353Z,99.90
2023-04-25T01:20:53.431Z,99.90
2023-04-25T01:21:11.764Z,99.90
2023-04-25T01:21:23.732Z,99.90
2023-04-25T01:21:35.589Z,99.90
2023-04-25T01:21:47.798Z,99.90
2023-04-25T01:21:59.687Z,99.90
2023-04-25T01:22:11.591Z,99.90
2023-04-25T01:22:23.440Z,99.90
2023-04-25T01:22:35.265Z,99.90
2023-04-25T01:22:47.038Z,99.90
2023-04-25T01:22:58.753Z,99.90
2023-04-25T01:23:10.919Z,99.90
2023-04-25T01:23:22.892Z,99.90
2023-04-25T01:23:34.701Z,99.90
2023-04-25T01:23:46.781Z,99.90
2023-04-25T01:23:58.549Z,99.90
2023-04-25T01:24:10.355Z,99.90
2023-04-25T01:24:22.159Z,99.90
2023-04-25T01:24:34.000Z,99.90
2023-04-25T01:24:45.777Z,99.90
2023-04-25T01:24:57.605Z,99.90
2023-04-25T01:25:10.226Z,99.90
2023-04-25T01:25:23.248Z,99.90
2023-04-25T01:25:35.100Z,99.90
2023-04-25T01:25:46.937Z,99.90
2023-04-25T01:25:58.700Z,99.90
2023-04-25T01:26:11.279Z,99.90
2023-04-25T01:26:23.509Z,99.90
2023-04-25T01:26:35.304Z,99.90
2023-04-25T01:26:50.854Z,99.90
2023-04-25T01:27:03.302Z,99.90
2023-04-25T01:27:15.194Z,99.90
2023-04-25T01:27:27.545Z,99.90
2023-04-25T01:27:39.427Z,99.90
2023-04-25T01:27:51.219Z,99.90
2023-04-25T01:28:03.087Z,99.90
2023-04-25T01:28:14.871Z,99.90
2023-04-25T01:28:26.746Z,99.90
2023-04-25T01:28:42.394Z,99.90
2023-04-25T01:28:54.384Z,99.90
2023-04-25T01:29:06.219Z,99.90
2023-04-25T01:29:20.983Z,99.90
2023-04-25T01:29:33.643Z,99.90
2023-04-25T01:29:45.594Z,99.90
2023-04-25T01:29:57.425Z,99.90
2023-04-25T01:30:09.792Z,99.90
2023-04-25T01:30:21.582Z,99.90
2023-04-25T01:30:33.906Z,99.90
2023-04-25T01:30:45.682Z,99.90
2023-04-25T01:30:57.539Z,99.90
2023-04-25T01:31:09.897Z,99.90
2023-04-25T01:31:21.834Z,99.90
2023-04-25T01:31:33.703Z,99.90
2023-04-25T01:31:45.701Z,99.90
2023-04-25T01:31:59.577Z,99.90
2023-04-25T01:32:11.513Z,99.90
2023-04-25T01:32:24.132Z,99.90
2023-04-25T01:32:39.623Z,99.90
2023-04-25T01:32:51.570Z,99.90
2023-04-25T01:33:03.720Z,99.90
2023-04-25T01:33:15.682Z,99.90
2023-04-25T01:33:27.449Z,99.90
2023-04-25T01:33:39.244Z,99.90
2023-04-25T01:33:51.331Z,99.90
2023-04-25T01:34:03.375Z,99.90
2023-04-25T01:34:15.293Z,99.90
2023-04-25T01:34:27.486Z,99.90
2023-04-25T01:34:39.681Z,99.90
2023-04-25T01:34:51.434Z,99.90
2023-04-25T01:35:03.756Z,99.90
2023-04-25T01:35:15.973Z,99.90
2023-04-25T01:35:27.865Z,99.90
2023-04-25T01:35:39.748Z,99.90
2023-04-25T01:35:51.592Z,99.90
2023-04-25T01:36:03.710Z,99.90
2023-04-25T01:36:15.485Z,99.90
2023-04-25T01:36:28.086Z,99.90
2023-04-25T01:36:40.435Z,99.90
2023-04-25T01:36:52.408Z,99.90
2023-04-25T01:37:05.375Z,99.90
2023-04-25T01:37:17.682Z,99.90
2023-04-25T01:37:29.543Z,99.90
2023-04-25T01:37:41.923Z,99.90
2023-04-25T01:37:54.056Z,99.90
2023-04-25T01:38:05.858Z,99.90
2023-04-25T01:38:17.602Z,99.90
2023-04-25T01:38:29.562Z,99.90
2023-04-25T01:38:41.336Z,99.90
2023-04-25T01:38:53.469Z,99.90
2023-04-25T01:39:05.224Z,99.90
2023-04-25T01:39:17.958Z,99.90
2023-04-25T01:39:29.990Z,99.90
2023-04-25T01:39:41.860Z,99.90
2023-04-25T01:39:54.616Z,99.90
2023-04-25T01:40:07.174Z,99.90
2023-04-25T01:40:19.789Z,99.90
2023-04-25T01:40:31.543Z,99.90
2023-04-25T01:40:43.423Z,99.90
2023-04-25T01:40:55.217Z,99.90
2023-04-25T01:41:07.123Z,99.90
2023-04-25T01:41:18.968Z,99.90
2023-04-25T01:41:30.834Z,99.90
2023-04-25T01:41:42.698Z,99.90
2023-04-25T01:41:55.022Z,99.90
2023-04-25T01:42:07.874Z,99.90
2023-04-25T01:42:19.686Z,99.90
2023-04-25T01:42:31.440Z,99.90
2023-04-25T01:42:44.729Z,99.90
2023-04-25T01:42:56.512Z,99.90
2023-04-25T01:43:11.992Z,99.90
2023-04-25T01:43:23.922Z,99.90
2023-04-25T01:43:36.545Z,99.90
2023-04-25T01:43:48.474Z,99.90
2023-04-25T01:44:00.463Z,99.90
2023-04-25T01:44:12.258Z,99.90
2023-04-25T01:44:24.145Z,99.90
2023-04-25T01:44:35.960Z,99.90
2023-04-25T01:44:47.837Z,99.90
2023-04-25T01:44:59.698Z,99.90
2023-04-25T01:45:11.925Z,99.90
2023-04-25T01:45:23.812Z,99.90
2023-04-25T01:45:37.507Z,99.90
2023-04-25T01:45:49.371Z,99.90
2023-04-25T01:46:01.335Z,99.90
2023-04-25T01:46:14.393Z,99.90
2023-04-25T01:46:26.356Z,99.90
2023-04-25T01:46:38.311Z,99.90
2023-04-25T01:46:50.211Z,99.90
2023-04-25T01:47:01.954Z,99.90
2023-04-25T01:47:13.714Z,99.90
2023-04-25T01:47:25.567Z,99.90
2023-04-25T01:47:37.591Z,99.90
2023-04-25T01:47:50.960Z,99.90
2023-04-25T01:48:03.098Z,99.90
2023-04-25T01:48:15.199Z,99.90
2023-04-25T01:48:27.019Z,99.90
2023-04-25T01:48:38.789Z,99.90
2023-04-25T01:48:50.536Z,99.90
2023-04-25T01:49:02.693Z,99.90
2023-04-25T01:49:14.540Z,99.90
2023-04-25T01:49:26.320Z,99.90
2023-04-25T01:49:38.131Z,99.90
2023-04-25T01:49:49.929Z,99.90
2023-04-25T01:50:05.445Z,99.90
2023-04-25T01:50:18.104Z,99.90
2023-04-25T01:50:30.356Z,99.90
2023-04-25T01:50:42.587Z,99.90
2023-04-25T01:50:54.464Z,99.90
2023-04-25T01:51:06.315Z,99.90
2023-04-25T01:51:18.076Z,99.90
2023-04-25T01:51:29.978Z,99.90
2023-04-25T01:51:41.749Z,99.90
2023-04-25T01:51:53.763Z,99.90
2023-04-25T01:52:05.687Z,99.90
2023-04-25T01:52:17.649Z,99.90
2023-04-25T01:52:29.411Z,99.90
2023-04-25T01:52:41.218Z,99.90
2023-04-25T01:52:53.028Z,99.90
2023-04-25T01:53:05.665Z,99.90
2023-04-25T01:53:17.470Z,99.90
2023-04-25T01:53:30.309Z,99.90
2023-04-25T01:53:42.071Z,99.90
2023-04-25T01:53:53.948Z,99.90
2023-04-25T01:54:05.784Z,99.90
2023-04-25T01:54:17.567Z,99.90
2023-04-25T01:54:29.357Z,99.90
2023-04-25T01:54:45.012Z,99.90
2023-04-25T01:54:57.995Z,99.90
2023-04-25T01:55:10.258Z,99.90
2023-04-25T01:55:22.398Z,99.90
2023-04-25T01:55:34.144Z,99.90
2023-04-25T01:55:45.877Z,99.90
2023-04-25T01:55:57.795Z,99.90
2023-04-25T01:56:09.563Z,99.90
2023-04-25T01:56:21.424Z,99.90
2023-04-25T01:56:34.224Z,99.90
2023-04-25T01:56:51.164Z,99.90
2023-04-25T01:57:02.972Z,99.90
2023-04-25T01:57:14.955Z,99.90
2023-04-25T01:57:26.911Z,99.90
2023-04-25T01:57:38.986Z,99.90
2023-04-25T01:57:50.733Z,99.90
2023-04-25T01:58:03.727Z,99.90
2023-04-25T01:58:15.526Z,99.90
2023-04-25T01:58:27.360Z,99.90
2023-04-25T01:58:39.086Z,99.90
2023-04-25T01:58:50.929Z,99.90
2023-04-25T01:59:02.838Z,99.90
2023-04-25T01:59:14.778Z,99.90
2023-04-25T01:59:26.659Z,99.90
2023-04-25T01:59:38.607Z,99.90
2023-04-25T01:59:50.547Z,99.90
2023-04-25T02:00:04.227Z,99.90
2023-04-25T02:00:16.229Z,99.90
2023-04-25T02:00:28.065Z,99.90
2023-04-25T02:00:40.287Z,99.90
2023-04-25T02:00:54.272Z,99.90
2023-04-25T02:01:06.139Z,99.90
2023-04-25T02:01:18.171Z,99.90
2023-04-25T02:01:30.028Z,99.90
2023-04-25T02:01:42.014Z,99.90
2023-04-25T02:01:54.035Z,99.90
2023-04-25T02:02:06.035Z,99.90
2023-04-25T02:02:17.959Z,99.90
2023-04-25T02:02:29.957Z,99.90
2023-04-25T02:02:42.009Z,99.90
2023-04-25T02:02:54.712Z,99.90
2023-04-25T02:03:06.873Z,99.90
2023-04-25T02:03:18.961Z,99.90
2023-04-25T02:03:32.408Z,99.90
2023-04-25T02:03:44.421Z,99.90
2023-04-25T02:03:56.971Z,99.90
2023-04-25T02:04:09.383Z,99.90
2023-04-25T02:04:21.558Z,99.90
2023-04-25T02:04:33.774Z,99.90
2023-04-25T02:04:45.824Z,99.90
2023-04-25T02:04:57.650Z,99.90
2023-04-25T02:05:09.655Z,99.90
2023-04-25T02:05:21.843Z,99.90
2023-04-25T02:05:39.981Z,99.90
2023-04-25T02:05:51.747Z,99.90
2023-04-25T02:06:04.389Z,99.90
2023-04-25T02:06:16.188Z,99.90
2023-04-25T02:06:27.983Z,99.90
2023-04-25T02:06:39.826Z,99.90
2023-04-25T02:06:51.677Z,99.90
2023-04-25T02:07:04.290Z,99.90
2023-04-25T02:07:16.810Z,99.90
2023-04-25T02:07:28.610Z,99.90
2023-04-25T02:07:40.393Z,99.90
2023-04-25T02:07:52.164Z,99.90
2023-04-25T02:08:05.450Z,99.90
2023-04-25T02:08:17.646Z,99.90
2023-04-25T02:08:29.508Z,99.90
2023-04-25T02:08:41.287Z,99.90
2023-04-25T02:08:53.167Z,99.90
2023-04-25T02:09:04.962Z,99.90
2023-04-25T02:09:16.726Z,99.90
2023-04-25T02:09:28.694Z,99.90
2023-04-25T02:09:40.446Z,99.90
2023-04-25T02:09:52.190Z,99.90
2023-04-25T02:10:04.458Z,99.90
2023-04-25T02:10:16.315Z,99.90
2023-04-25T02:10:28.134Z,99.90
2023-04-25T02:10:40.003Z,99.90
2023-04-25T02:10:51.780Z,99.90
2023-04-25T02:11:04.352Z,99.90
2023-04-25T02:11:16.139Z,99.90
2023-04-25T02:11:27.941Z,99.90
2023-04-25T02:11:39.719Z,99.90
2023-04-25T02:11:51.542Z,99.90
2023-04-25T02:12:03.443Z,99.90
2023-04-25T02:12:15.303Z,99.90
2023-04-25T02:12:28.499Z,99.90
2023-04-25T02:12:40.255Z,99.90
2023-04-25T02:12:52.073Z,99.90
2023-04-25T02:13:03.999Z,99.90
2023-04-25T02:13:15.794Z,99.90
2023-04-25T02:13:27.566Z,99.90
2023-04-25T02:13:39.438Z,99.90
2023-04-25T02:13:51.457Z,99.90
2023-04-25T02:14:03.403Z,99.90
2023-04-25T02:14:15.290Z,99.90
2023-04-25T02:14:27.120Z,99.90
2023-04-25T02:14:38.886Z,99.90
2023-04-25T02:14:50.738Z,99.90
2023-04-25T02:15:02.640Z,99.90
2023-04-25T02:15:14.520Z,99.90
2023-04-25T02:15:26.375Z,99.90
2023-04-25T02:15:38.304Z,99.90
2023-04-25T02:15:50.517Z,99.90
2023-04-25T02:16:03.448Z,99.90
2023-04-25T02:16:15.422Z,99.90
2023-04-25T02:16:27.299Z,99.90
2023-04-25T02:16:40.891Z,99.90
2023-04-25T02:16:53.170Z,99.90
2023-04-25T02:17:05.163Z,99.90
2023-04-25T02:17:17.192Z,99.90
2023-04-25T02:17:29.160Z,99.90
2023-04-25T02:17:41.069Z,99.90
2023-04-25T02:17:56.381Z,99.90
2023-04-25T02:18:08.287Z,99.90
2023-04-25T02:18:20.297Z,99.90
2023-04-25T02:18:32.456Z,99.90
2023-04-25T02:18:46.083Z,99.90
2023-04-25T02:18:57.918Z,99.90
2023-04-25T02:19:09.684Z,99.90
2023-04-25T02:19:21.595Z,99.90
2023-04-25T02:19:33.372Z,99.90
2023-04-25T02:19:45.860Z,99.90
2023-04-25T02:19:57.617Z,99.90
2023-04-25T02:20:11.111Z,99.90
2023-04-25T02:20:23.090Z,99.90
2023-04-25T02:20:35.018Z,99.90
2023-04-25T02:20:46.787Z,99.90
2023-04-25T02:21:02.170Z,99.90
2023-04-25T02:21:13.931Z,99.90
2023-04-25T02:21:27.082Z,99.90
2023-04-25T02:21:38.889Z,99.90
2023-04-25T02:21:50.712Z,99.90
2023-04-25T02:22:02.487Z,99.90
2023-04-25T02:22:14.365Z,99.90
2023-04-25T02:22:26.282Z,99.90
2023-04-25T02:22:38.036Z,99.90
2023-04-25T02:22:52.038Z,99.90
2023-04-25T02:23:04.323Z,99.90
2023-04-25T02:23:16.647Z,99.90
2023-04-25T02:23:29.803Z,99.90
2023-04-25T02:23:41.603Z,99.90
2023-04-25T02:23:53.751Z,99.90
2023-04-25T02:24:06.188Z,99.90
2023-04-25T02:24:18.006Z,99.90
2023-04-25T02:24:30.073Z,99.90
2023-04-25T02:24:41.938Z,99.90
2023-04-25T02:24:56.055Z,99.90
2023-04-25T02:25:08.207Z,99.90
2023-04-25T02:25:21.039Z,99.90
2023-04-25T02:25:32.949Z,99.90
2023-04-25T02:25:44.798Z,99.90
2023-04-25T02:25:58.410Z,99.90
2023-04-25T02:26:12.344Z,99.90
2023-04-25T02:26:24.781Z,99.90
2023-04-25T02:26:36.589Z,99.90
2023-04-25T02:26:48.345Z,99.90
2023-04-25T02:27:00.471Z,99.90
2023-04-25T02:27:12.251Z,99.90
2023-04-25T02:27:24.288Z,99.90
2023-04-25T02:27:36.173Z,99.90
2023-04-25T02:27:48.594Z,99.90
2023-04-25T02:28:00.378Z,99.90
2023-04-25T02:28:12.244Z,99.90
2023-04-25T02:28:25.316Z,99.90
2023-04-25T02:28:37.145Z,99.90
2023-04-25T02:28:49.103Z,99.90
2023-04-25T02:29:00.968Z,99.90
2023-04-25T02:29:12.700Z,99.90
2023-04-25T02:29:24.484Z,99.90
2023-04-25T02:29:36.565Z,99.90
2023-04-25T02:29:48.333Z,99.90
2023-04-25T02:30:00.160Z,99.90
2023-04-25T02:30:12.277Z,99.90
2023-04-25T02:30:24.073Z,99.90
2023-04-25T02:30:36.388Z,99.90
2023-04-25T02:30:48.616Z,99.90
2023-04-25T02:31:00.423Z,99.90
2023-04-25T02:31:12.375Z,99.90
2023-04-25T02:31:24.407Z,99.90
2023-04-25T02:31:36.422Z,99.90
2023-04-25T02:31:48.401Z,99.90
2023-04-25T02:32:00.382Z,99.90
2023-04-25T02:32:12.253Z,99.90
2023-04-25T02:32:24.131Z,99.90
2023-04-25T02:32:36.280Z,99.90
2023-04-25T02:32:48.242Z,99.90
2023-04-25T02:33:00.681Z,99.90
2023-04-25T02:33:12.652Z,99.90
2023-04-25T02:33:24.413Z,99.90
2023-04-25T02:33:36.194Z,99.90
2023-04-25T02:33:48.990Z,99.90
2023-04-25T02:34:00.971Z,99.90
2023-04-25T02:34:12.819Z,99.90
2023-04-25T02:34:24.770Z,99.90
2023-04-25T02:34:36.554Z,99.90
2023-04-25T02:34:49.141Z,99.90
2023-04-25T02:35:04.968Z,99.90
2023-04-25T02:35:16.879Z,99.90
2023-04-25T02:35:28.801Z,99.90
2023-04-25T02:35:40.641Z,99.90
2023-04-25T02:35:52.417Z,99.90
2023-04-25T02:36:04.541Z,99.90
2023-04-25T02:36:16.448Z,99.90
2023-04-25T02:36:28.616Z,99.90
2023-04-25T02:36:40.611Z,99.90
2023-04-25T02:36:52.648Z,99.90
2023-04-25T02:37:04.491Z,99.90
2023-04-25T02:37:16.281Z,99.90
2023-04-25T02:37:28.021Z,99.90
2023-04-25T02:37:40.251Z,99.90
2023-04-25T02:37:52.051Z,99.90
2023-04-25T02:38:03.866Z,99.90
2023-04-25T02:38:15.777Z,99.90
2023-04-25T02:38:27.549Z,99.90
2023-04-25T02:38:39.543Z,99.90
2023-04-25T02:38:51.286Z,99.90
2023-04-25T02:39:04.180Z,99.90
2023-04-25T02:39:16.021Z,99.90
2023-04-25T02:39:28.348Z,99.90
2023-04-25T02:39:40.164Z,99.90
2023-04-25T02:39:51.916Z,99.90
2023-04-25T02:40:04.937Z,99.90
2023-04-25T02:40:16.740Z,99.90
2023-04-25T02:40:28.717Z,99.90
2023-04-25T02:40:41.744Z,99.90
2023-04-25T02:40:53.555Z,99.90
2023-04-25T02:41:05.486Z,99.90
2023-04-25T02:41:17.252Z,99.90
2023-04-25T02:41:29.000Z,99.90
2023-04-25T02:41:40.810Z,99.90
2023-04-25T02:41:53.060Z,99.90
2023-04-25T02:42:04.848Z,99.90
2023-04-25T02:42:16.783Z,99.90
2023-04-25T02:42:28.563Z,99.90
2023-04-25T02:42:40.551Z,99.90
2023-04-25T02:42:52.568Z,99.90
2023-04-25T02:43:04.406Z,99.90
2023-04-25T02:43:17.182Z,99.90
2023-04-25T02:43:28.950Z,99.90
2023-04-25T02:43:40.831Z,99.90
2023-04-25T02:43:53.012Z,99.90
2023-04-25T02:44:04.989Z,99.90
2023-04-25T02:44:16.803Z,99.90
2023-04-25T02:44:28.580Z,99.90
2023-04-25T02:44:40.368Z,99.90
2023-04-25T02:44:52.091Z,99.90
2023-04-25T02:45:04.190Z,99.90
2023-04-25T02:45:16.169Z,99.90
2023-04-25T02:45:28.048Z,99.90
2023-04-25T02:45:39.835Z,99.90
2023-04-25T02:45:51.589Z,99.90
2023-04-25T02:46:03.464Z,99.90
2023-04-25T02:46:15.658Z,99.90
2023-04-25T02:46:38.848Z,99.90